BIKF/KEF METAR and TAF weather

Enter ICAO airport designator
Station Type Date Time Source
BIKF METAR 2020/07/11 20:30 UTC NOAA

BIKF 112030Z 21011KT 6000 -DZ OVC004 10/10 Q1012


Station Type Date Time Source
BIKF Decoded METAR 2020/07/11 20:30 UTC NOAA

Keflavikurflugvollur, Iceland (BIKF) 63-58N 022-36W 54M
Jul 11, 2020 - 04:30 PM EDT / 2020.07.11 2030 UTC
Wind: from the SSW (210 degrees) at 13 MPH (11 KT):0
Visibility: 3 mile(s):0
Sky conditions: overcast
Weather: light drizzle
Temperature: 50 F (10 C)
Dew Point: 50 F (10 C)
Relative Humidity: 100%
Pressure (altimeter): 29.88 in. Hg (1012 hPa)
ob: BIKF 112030Z 21011KT 6000 -DZ OVC004 10/10 Q1012
cycle: 20

Station Type Date Time Source
BIKF TAF 2020/07/11 21:54 UTC NOAA

TAF BIKF 111952Z 1121/1221 20008KT 9999 BKN010 OVC015 TX13/1217Z TN09/1202Z
TEMPO 1121/1213 3000 DZ BR OVC005
BECMG 1213/1215 SCT015 BKN020

Example: see airport list